Airfield :
LOGIN :

Register | Disclaimer

   EN    FR    IT 

 










Legend :    VFR   Marginal VFR   IFR   Intensive IFR   Very Intensive IFR
Visi :
Ceiling :
>= 8 km
>= 3000ft
5 to 8 km
1000 to 3000 ft
1500m to 5 km
500 to 1000 ft
800 to 1500m
200 to 500 ft
< 800m
< 200 ft
Symbols :   Thunderstorms  Fog  Heavy snow  Heavy precipitations  Wind > 20 kt
SIGMETs :     Misc.  Thunderstorms  Icing  Turbulence  Mountain Waves  Volcanic Ashes






- Airport Elevation : 37 ft
- IATA code : FRO


ENFL - Florø

CURRENT METAR :
  • 191850Z 11016KT 9999 FEW030 04/M00 Q1001

EXPIRED METARs :
  • 191820Z 13012KT 9999 FEW025 04/00 Q1002
  • 191750Z 15012KT 9999 FEW025 04/01 Q1002
  • 191720Z 12011KT 9999 FEW025 04/01 Q1002
  • 191650Z 13011KT 9999 FEW025 05/01 Q1002
  • 191620Z 13010KT 9999 FEW020 SCT030 05/02 Q1002
  • 191550Z 14010KT 9999 FEW020 SCT030 05/03 Q1002

TAF TAF ENFL
Valid from the 19 at 18:00 until the 20 at 03:00 UTC


191700Z 1918/2003 12012KT 9999 FEW020 SCT030
BECMG 1918/1920 14015G25KT
BECMG 1923/2002 16025G38KT RA BKN014



MET'MAP, your aeronautical weather chart ! - Copyright ORBIFLY December 2007 - Disclaimer

ORBIFLY MET'MAP TEAM :

Programming & Development : Alexandra Zaïnal
Concept & original design : Baudouin d'Aumeries
Assistance for programming : Marc-Olivier Méhu
Technical & hardware support : Manuel Goepfert

Contact : metmap@orbifly.com




SOURCES & CREDITS :

   NOAA